• Join FlightAware (Why Join?)
  • Login
  • US Flag 
07:44PM EST


 

Airport Tracker/Info


-or-


 

Live Flight TrackerFlight Track Log ✈ EJA831 ✈ 30-Apr-2013 ✈ KCAK - KFDY

Flight Track Log - Related Links

Times and Time Zones

All times are in EDT time to prevent confusion due to time zone crossing. See the EJA831 flight status page for this flight to view local times or setup timezone preferences in your user account.

Time Position Orientation Groundspeed Altitude Reporting Facility
EDT Latitude Longitude Course Direction KTS MPH feet Rate Location/Type
07:13PM 40.8769 -81.4453 270° West 185 213 4,700  Level Cleveland Center
07:14PM 40.8389 -81.4917 223° Southwest 193 222 7,600 2,100 Climbing Cleveland Center
07:15PM 40.8383 -81.5767 270° West 212 244 8,900 2,640 Climbing Cleveland Center
07:16PM 40.8436 -81.6783 274° West 259 298 12,900 3,660 Climbing Cleveland Center
07:17PM 40.8467 -81.7853 272° West 288 331 16,300 -3,960 Climbing Cleveland Center
07:18PM 40.8497 -81.8978 272° West 303 349 5,000 2,760 Descending Cleveland Center
07:19PM 40.8834 -82.1313 270° West  Level FlightAware Approximate
07:19PM 40.8522 -82.0242 272° West 313 360 21,900  Level Cleveland Center
07:20PM 40.8547 -82.1561 271° West 341 392 22,000  Climbing Cleveland Center
07:21PM 40.8611 -82.2936 274° West 369 425 22,000  Level Cleveland Center
07:22PM 40.8631 -82.4308 271° West 379 436 22,000 -360 Level Cleveland Center
07:23PM 40.8669 -82.5711 272° West 379 436 21,300 -1,440 Descending Cleveland Center
07:24PM 40.8750 -82.7031 275° West 379 436 19,200 -2,100 Descending Cleveland Center
07:25PM 40.8850 -82.8297 276° West 361 415 17,200 -2,100 Descending Cleveland Center
07:26PM 40.8950 -82.9592 276° West 354 407 15,000 -2,100 Descending Cleveland Center
07:27PM 40.9031 -83.0667 276° West 349 402 13,100 -2,100 Descending Cleveland Center
07:28PM 40.9147 -83.1989 277° West 344 396 10,900 -2,160 Descending Cleveland Center
07:29PM 40.9244 -83.3147 276° West 329 379 8,800 -2,100 Descending Cleveland Center
07:30PM 40.9306 -83.4086 275° West 286 329 6,800 -2,040 Descending Cleveland Center
07:31PM 40.9533 -83.5003 288° West 265 305 4,800 -1,020 Descending Cleveland Center
07:32PM 40.9633 -83.5914 278° West 265 305 4,800 60 Level Cleveland Center
07:33PM 40.9817 -83.6886 284° West 265 305 5,000 60 Climbing Cleveland Center
07:34PM 40.9997 -83.7858 284° West 265 305 5,000  Level Cleveland Center
07:35PM 41.0181 -83.8831 284° West 265 305 5,000  Level Cleveland Center
07:37PM 41.0090 -83.7739 96° East  Level FlightAware Approximate
07:44PM 41.0000 -83.6667 96° East  Level FlightAware Approximate
07:45PM 41.0120 -83.6686 96° East  Level Estimated